sensor_id;sensor_type;location;lat;lon;timestamp;temperature;humidity
50544;DHT22;41176;44.032;20.900;2023-08-21T00:01:14;23.50;99.90
50544;DHT22;41176;44.032;20.900;2023-08-21T00:03:39;23.60;99.90
50544;DHT22;41176;44.032;20.900;2023-08-21T00:06:05;23.60;99.90
50544;DHT22;41176;44.032;20.900;2023-08-21T00:08:31;23.50;99.90
50544;DHT22;41176;44.032;20.900;2023-08-21T00:10:56;23.50;99.90
50544;DHT22;41176;44.032;20.900;2023-08-21T00:13:22;23.60;99.90
50544;DHT22;41176;44.032;20.900;2023-08-21T00:15:48;23.60;99.90
50544;DHT22;41176;44.032;20.900;2023-08-21T00:18:14;23.70;99.90
50544;DHT22;41176;44.032;20.900;2023-08-21T00:20:40;23.70;99.90
50544;DHT22;41176;44.032;20.900;2023-08-21T00:23:07;23.70;99.90
50544;DHT22;41176;44.032;20.900;2023-08-21T00:25:34;23.80;99.90
50544;DHT22;41176;44.032;20.900;2023-08-21T00:28:00;23.90;99.90
50544;DHT22;41176;44.032;20.900;2023-08-21T00:30:26;23.90;99.90
50544;DHT22;41176;44.032;20.900;2023-08-21T00:32:51;23.90;99.90
50544;DHT22;41176;44.032;20.900;2023-08-21T00:35:17;24.00;99.90
50544;DHT22;41176;44.032;20.900;2023-08-21T00:37:43;24.00;99.90
50544;DHT22;41176;44.032;20.900;2023-08-21T00:40:09;24.00;99.90
50544;DHT22;41176;44.032;20.900;2023-08-21T00:42:35;24.00;99.90
50544;DHT22;41176;44.032;20.900;2023-08-21T00:45:01;24.00;99.90
50544;DHT22;41176;44.032;20.900;2023-08-21T00:47:27;23.90;99.90
50544;DHT22;41176;44.032;20.900;2023-08-21T00:49:52;23.90;99.90
50544;DHT22;41176;44.032;20.900;2023-08-21T00:52:18;23.70;99.90
50544;DHT22;41176;44.032;20.900;2023-08-21T00:54:44;23.50;99.90
50544;DHT22;41176;44.032;20.900;2023-08-21T00:57:10;23.60;99.90
50544;DHT22;41176;44.032;20.900;2023-08-21T00:59:38;23.40;99.90
50544;DHT22;41176;44.032;20.900;2023-08-21T01:02:04;23.40;99.90
50544;DHT22;41176;44.032;20.900;2023-08-21T01:04:30;23.30;99.90
50544;DHT22;41176;44.032;20.900;2023-08-21T01:06:57;23.20;99.90
50544;DHT22;41176;44.032;20.900;2023-08-21T01:15:00;23.20;99.90
50544;DHT22;41176;44.032;20.900;2023-08-21T01:17:34;23.20;99.90
50544;DHT22;41176;44.032;20.900;2023-08-21T01:20:00;23.00;99.90
50544;DHT22;41176;44.032;20.900;2023-08-21T01:22:39;23.00;99.90
50544;DHT22;41176;44.032;20.900;2023-08-21T01:25:06;23.10;99.90
50544;DHT22;41176;44.032;20.900;2023-08-21T01:27:33;23.30;99.90
50544;DHT22;41176;44.032;20.900;2023-08-21T01:30:00;23.40;99.90
50544;DHT22;41176;44.032;20.900;2023-08-21T01:35:09;23.40;99.90
50544;DHT22;41176;44.032;20.900;2023-08-21T01:37:36;23.50;99.90
50544;DHT22;41176;44.032;20.900;2023-08-21T01:40:03;23.50;99.90
50544;DHT22;41176;44.032;20.900;2023-08-21T01:42:29;23.50;99.90
50544;DHT22;41176;44.032;20.900;2023-08-21T01:44:55;23.50;99.90
50544;DHT22;41176;44.032;20.900;2023-08-21T01:47:21;23.50;99.90
50544;DHT22;41176;44.032;20.900;2023-08-21T01:49:46;23.40;99.90
50544;DHT22;41176;44.032;20.900;2023-08-21T01:52:12;23.40;99.90
50544;DHT22;41176;44.032;20.900;2023-08-21T01:54:38;23.50;99.90
50544;DHT22;41176;44.032;20.900;2023-08-21T01:57:04;23.50;99.90
50544;DHT22;41176;44.032;20.900;2023-08-21T01:59:30;23.30;99.90
50544;DHT22;41176;44.032;20.900;2023-08-21T02:01:56;23.30;99.90
50544;DHT22;41176;44.032;20.900;2023-08-21T02:04:22;23.30;99.90
50544;DHT22;41176;44.032;20.900;2023-08-21T02:06:47;23.40;99.90
50544;DHT22;41176;44.032;20.900;2023-08-21T02:09:13;23.50;99.90
50544;DHT22;41176;44.032;20.900;2023-08-21T02:11:39;23.50;99.90
50544;DHT22;41176;44.032;20.900;2023-08-21T02:14:04;23.60;99.90
50544;DHT22;41176;44.032;20.900;2023-08-21T02:16:30;23.60;99.90
50544;DHT22;41176;44.032;20.900;2023-08-21T02:18:56;23.70;99.90
50544;DHT22;41176;44.032;20.900;2023-08-21T02:21:22;23.70;99.90
50544;DHT22;41176;44.032;20.900;2023-08-21T02:23:48;23.70;99.90
50544;DHT22;41176;44.032;20.900;2023-08-21T02:26:14;23.80;99.90
50544;DHT22;41176;44.032;20.900;2023-08-21T02:28:39;23.80;99.90
50544;DHT22;41176;44.032;20.900;2023-08-21T02:31:09;23.70;99.90
50544;DHT22;41176;44.032;20.900;2023-08-21T02:33:35;23.60;99.90
50544;DHT22;41176;44.032;20.900;2023-08-21T02:36:00;23.50;99.90
50544;DHT22;41176;44.032;20.900;2023-08-21T02:38:28;23.40;99.90
50544;DHT22;41176;44.032;20.900;2023-08-21T02:40:54;23.50;99.90
50544;DHT22;41176;44.032;20.900;2023-08-21T02:43:19;23.50;99.90
50544;DHT22;41176;44.032;20.900;2023-08-21T02:45:45;23.60;99.90
50544;DHT22;41176;44.032;20.900;2023-08-21T02:48:11;23.70;99.90
50544;DHT22;41176;44.032;20.900;2023-08-21T02:50:37;23.60;99.90
50544;DHT22;41176;44.032;20.900;2023-08-21T02:53:03;23.70;99.90
50544;DHT22;41176;44.032;20.900;2023-08-21T02:55:28;23.80;99.90
50544;DHT22;41176;44.032;20.900;2023-08-21T02:57:54;23.80;99.90
50544;DHT22;41176;44.032;20.900;2023-08-21T03:00:20;23.80;99.90
50544;DHT22;41176;44.032;20.900;2023-08-21T03:02:45;23.70;99.90
50544;DHT22;41176;44.032;20.900;2023-08-21T03:05:11;23.60;99.90
50544;DHT22;41176;44.032;20.900;2023-08-21T03:07:37;23.60;99.90
50544;DHT22;41176;44.032;20.900;2023-08-21T03:10:03;23.60;99.90
50544;DHT22;41176;44.032;20.900;2023-08-21T03:12:29;23.60;99.90
50544;DHT22;41176;44.032;20.900;2023-08-21T03:14:55;23.50;99.90
50544;DHT22;41176;44.032;20.900;2023-08-21T03:17:20;23.30;99.90
50544;DHT22;41176;44.032;20.900;2023-08-21T03:19:46;23.10;99.90
50544;DHT22;41176;44.032;20.900;2023-08-21T03:22:12;23.30;99.90
50544;DHT22;41176;44.032;20.900;2023-08-21T03:24:38;23.30;99.90
50544;DHT22;41176;44.032;20.900;2023-08-21T03:27:03;23.30;99.90
50544;DHT22;41176;44.032;20.900;2023-08-21T03:29:29;23.30;99.90
50544;DHT22;41176;44.032;20.900;2023-08-21T03:31:55;23.40;99.90
50544;DHT22;41176;44.032;20.900;2023-08-21T03:34:21;23.50;99.90
50544;DHT22;41176;44.032;20.900;2023-08-21T03:36:47;23.60;99.90
50544;DHT22;41176;44.032;20.900;2023-08-21T03:39:13;23.60;99.90
50544;DHT22;41176;44.032;20.900;2023-08-21T03:41:38;23.70;99.90
50544;DHT22;41176;44.032;20.900;2023-08-21T03:44:04;23.50;99.90
50544;DHT22;41176;44.032;20.900;2023-08-21T03:46:30;23.60;99.90
50544;DHT22;41176;44.032;20.900;2023-08-21T03:48:56;23.50;99.90
50544;DHT22;41176;44.032;20.900;2023-08-21T03:51:22;23.60;99.90
50544;DHT22;41176;44.032;20.900;2023-08-21T03:53:49;23.60;99.90
50544;DHT22;41176;44.032;20.900;2023-08-21T03:56:15;23.60;99.90
50544;DHT22;41176;44.032;20.900;2023-08-21T03:58:40;23.60;99.90
50544;DHT22;41176;44.032;20.900;2023-08-21T04:01:06;23.50;99.90
50544;DHT22;41176;44.032;20.900;2023-08-21T04:03:32;23.60;99.90
50544;DHT22;41176;44.032;20.900;2023-08-21T04:05:59;23.70;99.90
50544;DHT22;41176;44.032;20.900;2023-08-21T04:08:25;23.70;99.90
50544;DHT22;41176;44.032;20.900;2023-08-21T04:10:50;23.60;99.90
50544;DHT22;41176;44.032;20.900;2023-08-21T04:13:18;23.70;99.90
50544;DHT22;41176;44.032;20.900;2023-08-21T04:15:45;23.70;99.90
50544;DHT22;41176;44.032;20.900;2023-08-21T04:18:11;23.70;99.90
50544;DHT22;41176;44.032;20.900;2023-08-21T04:20:37;23.70;99.90
50544;DHT22;41176;44.032;20.900;2023-08-21T04:23:03;23.70;99.90
50544;DHT22;41176;44.032;20.900;2023-08-21T04:25:29;23.70;99.90
50544;DHT22;41176;44.032;20.900;2023-08-21T04:27:55;23.80;99.90
50544;DHT22;41176;44.032;20.900;2023-08-21T04:30:21;23.80;99.90
50544;DHT22;41176;44.032;20.900;2023-08-21T04:32:47;23.70;99.90
50544;DHT22;41176;44.032;20.900;2023-08-21T04:35:13;23.80;99.90
50544;DHT22;41176;44.032;20.900;2023-08-21T04:37:46;23.80;99.90
50544;DHT22;41176;44.032;20.900;2023-08-21T04:40:12;23.70;99.90
50544;DHT22;41176;44.032;20.900;2023-08-21T04:42:38;23.80;99.90
50544;DHT22;41176;44.032;20.900;2023-08-21T04:45:04;23.80;99.90
50544;DHT22;41176;44.032;20.900;2023-08-21T04:47:31;24.00;99.90
50544;DHT22;41176;44.032;20.900;2023-08-21T04:49:57;23.90;99.90
50544;DHT22;41176;44.032;20.900;2023-08-21T04:52:24;23.80;99.90
50544;DHT22;41176;44.032;20.900;2023-08-21T04:54:51;23.70;99.90
50544;DHT22;41176;44.032;20.900;2023-08-21T04:57:17;23.50;99.90
50544;DHT22;41176;44.032;20.900;2023-08-21T04:59:43;23.60;99.90
50544;DHT22;41176;44.032;20.900;2023-08-21T05:02:09;23.80;99.90
50544;DHT22;41176;44.032;20.900;2023-08-21T05:04:38;24.00;99.90
50544;DHT22;41176;44.032;20.900;2023-08-21T05:07:04;23.90;99.90
50544;DHT22;41176;44.032;20.900;2023-08-21T05:09:31;24.00;99.90
50544;DHT22;41176;44.032;20.900;2023-08-21T05:11:57;24.20;99.90
50544;DHT22;41176;44.032;20.900;2023-08-21T05:14:23;24.10;99.90
50544;DHT22;41176;44.032;20.900;2023-08-21T05:16:49;24.20;99.90
50544;DHT22;41176;44.032;20.900;2023-08-21T05:19:15;24.10;99.90
50544;DHT22;41176;44.032;20.900;2023-08-21T05:21:41;24.20;99.90
50544;DHT22;41176;44.032;20.900;2023-08-21T05:24:07;24.30;99.90
50544;DHT22;41176;44.032;20.900;2023-08-21T05:26:34;24.40;99.90
50544;DHT22;41176;44.032;20.900;2023-08-21T05:29:00;24.40;99.90
50544;DHT22;41176;44.032;20.900;2023-08-21T05:31:26;24.50;99.90
50544;DHT22;41176;44.032;20.900;2023-08-21T05:33:52;24.50;99.90
50544;DHT22;41176;44.032;20.900;2023-08-21T05:36:17;24.70;99.90
50544;DHT22;41176;44.032;20.900;2023-08-21T05:38:43;24.90;99.90
50544;DHT22;41176;44.032;20.900;2023-08-21T05:41:09;24.80;99.90
50544;DHT22;41176;44.032;20.900;2023-08-21T05:43:34;24.90;99.90
50544;DHT22;41176;44.032;20.900;2023-08-21T05:46:00;24.90;99.90
50544;DHT22;41176;44.032;20.900;2023-08-21T05:48:26;25.10;99.90
50544;DHT22;41176;44.032;20.900;2023-08-21T05:50:52;25.30;99.90
50544;DHT22;41176;44.032;20.900;2023-08-21T05:53:18;25.60;99.90
50544;DHT22;41176;44.032;20.900;2023-08-21T05:55:44;25.50;99.90
50544;DHT22;41176;44.032;20.900;2023-08-21T05:58:10;25.70;99.90
50544;DHT22;41176;44.032;20.900;2023-08-21T06:00:38;25.70;99.90
50544;DHT22;41176;44.032;20.900;2023-08-21T06:03:04;25.70;99.90
50544;DHT22;41176;44.032;20.900;2023-08-21T06:05:30;25.70;99.90
50544;DHT22;41176;44.032;20.900;2023-08-21T06:07:56;25.80;99.90
50544;DHT22;41176;44.032;20.900;2023-08-21T06:10:22;25.70;99.90
50544;DHT22;41176;44.032;20.900;2023-08-21T06:12:48;25.60;99.90
50544;DHT22;41176;44.032;20.900;2023-08-21T06:15:14;25.80;99.90
50544;DHT22;41176;44.032;20.900;2023-08-21T06:17:40;25.80;99.90
50544;DHT22;41176;44.032;20.900;2023-08-21T06:20:20;26.10;99.90
50544;DHT22;41176;44.032;20.900;2023-08-21T06:22:46;26.10;99.90
50544;DHT22;41176;44.032;20.900;2023-08-21T06:25:11;26.20;99.90
50544;DHT22;41176;44.032;20.900;2023-08-21T06:27:39;26.40;99.90
50544;DHT22;41176;44.032;20.900;2023-08-21T06:30:05;26.50;99.90
50544;DHT22;41176;44.032;20.900;2023-08-21T06:32:31;26.70;99.90
50544;DHT22;41176;44.032;20.900;2023-08-21T06:34:57;26.80;99.90
50544;DHT22;41176;44.032;20.900;2023-08-21T06:37:22;27.00;99.90
50544;DHT22;41176;44.032;20.900;2023-08-21T06:39:48;27.20;99.90
50544;DHT22;41176;44.032;20.900;2023-08-21T06:42:14;27.20;99.90
50544;DHT22;41176;44.032;20.900;2023-08-21T06:44:40;27.40;99.90
50544;DHT22;41176;44.032;20.900;2023-08-21T06:47:06;27.30;99.90
50544;DHT22;41176;44.032;20.900;2023-08-21T06:49:31;27.40;99.90
50544;DHT22;41176;44.032;20.900;2023-08-21T06:51:57;27.50;99.90
50544;DHT22;41176;44.032;20.900;2023-08-21T06:54:23;27.60;99.90
50544;DHT22;41176;44.032;20.900;2023-08-21T06:56:48;27.70;99.90
50544;DHT22;41176;44.032;20.900;2023-08-21T06:59:14;27.70;99.90
50544;DHT22;41176;44.032;20.900;2023-08-21T07:01:40;27.60;99.90
50544;DHT22;41176;44.032;20.900;2023-08-21T07:04:06;28.00;99.90
50544;DHT22;41176;44.032;20.900;2023-08-21T07:06:32;28.10;99.90
50544;DHT22;41176;44.032;20.900;2023-08-21T07:08:58;28.30;99.90
50544;DHT22;41176;44.032;20.900;2023-08-21T07:11:23;28.50;99.90
50544;DHT22;41176;44.032;20.900;2023-08-21T07:13:49;28.50;99.90
50544;DHT22;41176;44.032;20.900;2023-08-21T07:16:15;28.70;99.90
50544;DHT22;41176;44.032;20.900;2023-08-21T07:18:41;29.10;99.90
50544;DHT22;41176;44.032;20.900;2023-08-21T07:21:06;29.60;99.90
50544;DHT22;41176;44.032;20.900;2023-08-21T07:23:32;29.80;98.30
50544;DHT22;41176;44.032;20.900;2023-08-21T07:25:59;29.60;99.80
50544;DHT22;41176;44.032;20.900;2023-08-21T07:28:25;29.90;97.90
50544;DHT22;41176;44.032;20.900;2023-08-21T07:30:55;30.30;96.90
50544;DHT22;41176;44.032;20.900;2023-08-21T07:33:22;30.70;96.90
50544;DHT22;41176;44.032;20.900;2023-08-21T07:35:47;31.10;94.80
50544;DHT22;41176;44.032;20.900;2023-08-21T07:38:21;31.20;94.60
50544;DHT22;41176;44.032;20.900;2023-08-21T07:40:47;31.30;94.80
50544;DHT22;41176;44.032;20.900;2023-08-21T07:43:13;31.40;92.40
50544;DHT22;41176;44.032;20.900;2023-08-21T07:45:38;31.50;93.10
50544;DHT22;41176;44.032;20.900;2023-08-21T07:48:04;31.80;91.80
50544;DHT22;41176;44.032;20.900;2023-08-21T07:50:30;32.10;91.30
50544;DHT22;41176;44.032;20.900;2023-08-21T07:52:56;32.40;91.90
50544;DHT22;41176;44.032;20.900;2023-08-21T07:55:22;32.70;91.00
50544;DHT22;41176;44.032;20.900;2023-08-21T07:57:47;33.10;89.10
50544;DHT22;41176;44.032;20.900;2023-08-21T08:00:14;33.20;86.10
50544;DHT22;41176;44.032;20.900;2023-08-21T08:02:39;33.40;83.60
50544;DHT22;41176;44.032;20.900;2023-08-21T08:05:06;33.50;82.90
50544;DHT22;41176;44.032;20.900;2023-08-21T08:07:31;33.70;82.60
50544;DHT22;41176;44.032;20.900;2023-08-21T08:09:57;34.00;81.50
50544;DHT22;41176;44.032;20.900;2023-08-21T08:12:23;34.20;80.30
50544;DHT22;41176;44.032;20.900;2023-08-21T08:14:49;34.20;79.60
50544;DHT22;41176;44.032;20.900;2023-08-21T08:17:14;34.40;79.00
50544;DHT22;41176;44.032;20.900;2023-08-21T08:19:40;34.50;77.90
50544;DHT22;41176;44.032;20.900;2023-08-21T08:22:06;34.60;76.40
50544;DHT22;41176;44.032;20.900;2023-08-21T08:24:31;34.50;76.40
50544;DHT22;41176;44.032;20.900;2023-08-21T08:26:57;34.40;78.30
50544;DHT22;41176;44.032;20.900;2023-08-21T08:29:23;34.50;77.40
50544;DHT22;41176;44.032;20.900;2023-08-21T08:31:48;34.70;76.40
50544;DHT22;41176;44.032;20.900;2023-08-21T08:34:14;34.80;75.90
50544;DHT22;41176;44.032;20.900;2023-08-21T08:36:40;34.90;74.80
50544;DHT22;41176;44.032;20.900;2023-08-21T08:39:07;35.10;75.10
50544;DHT22;41176;44.032;20.900;2023-08-21T08:41:43;35.10;74.20
50544;DHT22;41176;44.032;20.900;2023-08-21T08:44:09;34.80;74.80
50544;DHT22;41176;44.032;20.900;2023-08-21T08:46:38;34.60;74.10
50544;DHT22;41176;44.032;20.900;2023-08-21T08:49:03;34.90;74.60
50544;DHT22;41176;44.032;20.900;2023-08-21T08:51:30;35.20;73.00
50544;DHT22;41176;44.032;20.900;2023-08-21T08:53:58;35.50;71.70
50544;DHT22;41176;44.032;20.900;2023-08-21T08:56:24;35.70;70.50
50544;DHT22;41176;44.032;20.900;2023-08-21T08:58:51;35.80;70.40
50544;DHT22;41176;44.032;20.900;2023-08-21T09:01:16;35.70;69.50
50544;DHT22;41176;44.032;20.900;2023-08-21T09:03:42;35.70;69.70
50544;DHT22;41176;44.032;20.900;2023-08-21T09:06:08;35.40;70.00
50544;DHT22;41176;44.032;20.900;2023-08-21T09:08:33;35.60;71.70
50544;DHT22;41176;44.032;20.900;2023-08-21T09:11:02;35.80;68.70
50544;DHT22;41176;44.032;20.900;2023-08-21T09:13:31;36.00;67.10
50544;DHT22;41176;44.032;20.900;2023-08-21T09:15:58;36.20;67.00
50544;DHT22;41176;44.032;20.900;2023-08-21T09:18:24;36.30;68.40
50544;DHT22;41176;44.032;20.900;2023-08-21T09:20:50;36.40;67.30
50544;DHT22;41176;44.032;20.900;2023-08-21T09:23:17;36.60;66.60
50544;DHT22;41176;44.032;20.900;2023-08-21T09:25:45;36.70;65.50
50544;DHT22;41176;44.032;20.900;2023-08-21T09:28:12;36.80;66.50
50544;DHT22;41176;44.032;20.900;2023-08-21T09:30:48;36.20;65.80
50544;DHT22;41176;44.032;20.900;2023-08-21T09:33:17;36.30;66.90
50544;DHT22;41176;44.032;20.900;2023-08-21T09:35:43;36.60;65.80
50544;DHT22;41176;44.032;20.900;2023-08-21T09:38:09;37.00;65.30
50544;DHT22;41176;44.032;20.900;2023-08-21T09:40:53;37.20;65.10
50544;DHT22;41176;44.032;20.900;2023-08-21T09:43:23;37.40;64.00
50544;DHT22;41176;44.032;20.900;2023-08-21T09:45:50;37.60;62.10
50544;DHT22;41176;44.032;20.900;2023-08-21T09:48:27;37.50;61.20
50544;DHT22;41176;44.032;20.900;2023-08-21T09:50:53;37.50;63.20
50544;DHT22;41176;44.032;20.900;2023-08-21T09:53:23;37.50;62.00
50544;DHT22;41176;44.032;20.900;2023-08-21T09:56:00;37.60;61.50
50544;DHT22;41176;44.032;20.900;2023-08-21T09:58:28;37.70;60.80
50544;DHT22;41176;44.032;20.900;2023-08-21T10:00:56;37.80;59.70
50544;DHT22;41176;44.032;20.900;2023-08-21T10:03:23;37.90;60.80
50544;DHT22;41176;44.032;20.900;2023-08-21T10:05:49;37.90;60.80
50544;DHT22;41176;44.032;20.900;2023-08-21T10:08:20;37.80;59.70
50544;DHT22;41176;44.032;20.900;2023-08-21T10:10:46;37.70;59.60
50544;DHT22;41176;44.032;20.900;2023-08-21T10:13:12;37.70;59.90
50544;DHT22;41176;44.032;20.900;2023-08-21T10:15:38;37.80;59.00
50544;DHT22;41176;44.032;20.900;2023-08-21T10:20:47;37.60;58.30
50544;DHT22;41176;44.032;20.900;2023-08-21T10:23:30;37.70;57.70
50544;DHT22;41176;44.032;20.900;2023-08-21T10:26:00;37.50;56.60
50544;DHT22;41176;44.032;20.900;2023-08-21T10:28:50;37.60;57.90
50544;DHT22;41176;44.032;20.900;2023-08-21T10:34:05;37.90;57.10
50544;DHT22;41176;44.032;20.900;2023-08-21T10:41:57;37.90;57.10
50544;DHT22;41176;44.032;20.900;2023-08-21T10:49:38;38.10;58.10
50544;DHT22;41176;44.032;20.900;2023-08-21T10:52:04;38.10;57.80
50544;DHT22;41176;44.032;20.900;2023-08-21T10:54:45;38.00;56.40
50544;DHT22;41176;44.032;20.900;2023-08-21T10:57:11;37.80;57.10
50544;DHT22;41176;44.032;20.900;2023-08-21T10:59:37;37.70;58.10
50544;DHT22;41176;44.032;20.900;2023-08-21T11:02:03;37.60;58.00
50544;DHT22;41176;44.032;20.900;2023-08-21T11:04:29;37.30;56.60
50544;DHT22;41176;44.032;20.900;2023-08-21T11:06:54;37.10;57.80
50544;DHT22;41176;44.032;20.900;2023-08-21T11:09:22;37.10;58.80
50544;DHT22;41176;44.032;20.900;2023-08-21T11:11:48;37.20;58.30
50544;DHT22;41176;44.032;20.900;2023-08-21T11:14:13;37.10;56.90
50544;DHT22;41176;44.032;20.900;2023-08-21T11:16:39;37.00;57.50
50544;DHT22;41176;44.032;20.900;2023-08-21T11:19:05;37.00;57.90
50544;DHT22;41176;44.032;20.900;2023-08-21T11:21:31;36.90;59.00
50544;DHT22;41176;44.032;20.900;2023-08-21T11:23:56;36.90;59.60
50544;DHT22;41176;44.032;20.900;2023-08-21T11:26:25;36.90;60.40
50544;DHT22;41176;44.032;20.900;2023-08-21T11:28:51;36.80;59.80
50544;DHT22;41176;44.032;20.900;2023-08-21T11:31:16;36.90;61.40
50544;DHT22;41176;44.032;20.900;2023-08-21T11:33:49;36.90;58.90
50544;DHT22;41176;44.032;20.900;2023-08-21T11:36:15;36.90;58.50
50544;DHT22;41176;44.032;20.900;2023-08-21T11:38:41;37.00;60.80
50544;DHT22;41176;44.032;20.900;2023-08-21T11:41:07;37.10;60.10
50544;DHT22;41176;44.032;20.900;2023-08-21T11:43:40;37.10;58.20
50544;DHT22;41176;44.032;20.900;2023-08-21T11:46:08;37.00;58.70
50544;DHT22;41176;44.032;20.900;2023-08-21T11:48:36;37.00;58.10
50544;DHT22;41176;44.032;20.900;2023-08-21T11:51:02;36.70;58.90
50544;DHT22;41176;44.032;20.900;2023-08-21T11:53:37;36.60;59.00
50544;DHT22;41176;44.032;20.900;2023-08-21T11:56:12;36.60;58.90
50544;DHT22;41176;44.032;20.900;2023-08-21T11:58:43;36.60;59.20
50544;DHT22;41176;44.032;20.900;2023-08-21T12:01:11;36.70;61.10
50544;DHT22;41176;44.032;20.900;2023-08-21T12:03:41;36.80;59.70
50544;DHT22;41176;44.032;20.900;2023-08-21T12:06:11;36.80;59.20
50544;DHT22;41176;44.032;20.900;2023-08-21T12:08:38;36.90;58.30
50544;DHT22;41176;44.032;20.900;2023-08-21T12:11:04;37.00;58.10
50544;DHT22;41176;44.032;20.900;2023-08-21T12:13:30;36.90;57.20
50544;DHT22;41176;44.032;20.900;2023-08-21T12:15:56;36.70;54.90
50544;DHT22;41176;44.032;20.900;2023-08-21T12:18:23;36.70;56.80
50544;DHT22;41176;44.032;20.900;2023-08-21T12:20:48;36.90;56.50
50544;DHT22;41176;44.032;20.900;2023-08-21T12:23:14;36.80;56.40
50544;DHT22;41176;44.032;20.900;2023-08-21T12:25:40;36.80;56.20
50544;DHT22;41176;44.032;20.900;2023-08-21T12:28:07;36.80;56.40
50544;DHT22;41176;44.032;20.900;2023-08-21T12:30:34;36.80;56.70
50544;DHT22;41176;44.032;20.900;2023-08-21T12:33:00;36.90;57.90
50544;DHT22;41176;44.032;20.900;2023-08-21T12:35:25;37.00;57.00
50544;DHT22;41176;44.032;20.900;2023-08-21T12:37:57;37.00;55.10
50544;DHT22;41176;44.032;20.900;2023-08-21T12:40:23;36.90;54.20
50544;DHT22;41176;44.032;20.900;2023-08-21T12:42:49;36.80;54.40
50544;DHT22;41176;44.032;20.900;2023-08-21T12:45:16;36.70;55.30
50544;DHT22;41176;44.032;20.900;2023-08-21T12:47:42;36.70;54.50
50544;DHT22;41176;44.032;20.900;2023-08-21T12:50:08;36.60;54.80
50544;DHT22;41176;44.032;20.900;2023-08-21T12:52:34;36.50;54.40
50544;DHT22;41176;44.032;20.900;2023-08-21T12:55:00;36.40;55.40
50544;DHT22;41176;44.032;20.900;2023-08-21T12:57:29;36.40;55.30
50544;DHT22;41176;44.032;20.900;2023-08-21T12:59:54;36.30;55.20
50544;DHT22;41176;44.032;20.900;2023-08-21T13:02:20;36.20;56.40
50544;DHT22;41176;44.032;20.900;2023-08-21T13:04:48;36.20;55.20
50544;DHT22;41176;44.032;20.900;2023-08-21T13:07:14;36.00;54.60
50544;DHT22;41176;44.032;20.900;2023-08-21T13:09:40;36.10;55.70
50544;DHT22;41176;44.032;20.900;2023-08-21T13:12:05;36.30;55.10
50544;DHT22;41176;44.032;20.900;2023-08-21T13:14:31;36.20;56.20
50544;DHT22;41176;44.032;20.900;2023-08-21T13:16:57;36.30;56.60
50544;DHT22;41176;44.032;20.900;2023-08-21T13:19:26;36.30;56.00
50544;DHT22;41176;44.032;20.900;2023-08-21T13:21:55;36.40;55.80
50544;DHT22;41176;44.032;20.900;2023-08-21T13:24:31;36.50;56.20
50544;DHT22;41176;44.032;20.900;2023-08-21T13:26:57;36.50;56.60
50544;DHT22;41176;44.032;20.900;2023-08-21T13:32:44;36.70;57.40
50544;DHT22;41176;44.032;20.900;2023-08-21T13:35:13;36.60;56.40
50544;DHT22;41176;44.032;20.900;2023-08-21T13:38:13;36.40;56.90
50544;DHT22;41176;44.032;20.900;2023-08-21T13:40:39;36.70;58.60
50544;DHT22;41176;44.032;20.900;2023-08-21T13:43:08;36.70;56.70
50544;DHT22;41176;44.032;20.900;2023-08-21T13:48:42;36.70;56.90
50544;DHT22;41176;44.032;20.900;2023-08-21T13:51:11;36.70;56.50
50544;DHT22;41176;44.032;20.900;2023-08-21T13:53:46;36.80;56.50
50544;DHT22;41176;44.032;20.900;2023-08-21T13:56:11;36.90;57.10
50544;DHT22;41176;44.032;20.900;2023-08-21T14:01:47;36.80;56.70
50544;DHT22;41176;44.032;20.900;2023-08-21T14:04:16;36.90;56.70
50544;DHT22;41176;44.032;20.900;2023-08-21T14:10:08;36.90;56.10
50544;DHT22;41176;44.032;20.900;2023-08-21T14:12:34;36.90;55.40
50544;DHT22;41176;44.032;20.900;2023-08-21T14:15:00;37.00;55.40
50544;DHT22;41176;44.032;20.900;2023-08-21T14:17:26;37.10;56.10
50544;DHT22;41176;44.032;20.900;2023-08-21T14:19:52;37.10;55.90
50544;DHT22;41176;44.032;20.900;2023-08-21T14:22:20;37.10;55.60
50544;DHT22;41176;44.032;20.900;2023-08-21T14:24:45;37.20;56.00
50544;DHT22;41176;44.032;20.900;2023-08-21T14:27:11;37.20;56.30
50544;DHT22;41176;44.032;20.900;2023-08-21T14:29:37;37.10;55.10
50544;DHT22;41176;44.032;20.900;2023-08-21T14:32:03;36.80;56.30
50544;DHT22;41176;44.032;20.900;2023-08-21T14:34:28;36.70;57.30
50544;DHT22;41176;44.032;20.900;2023-08-21T14:36:54;36.30;57.20
50544;DHT22;41176;44.032;20.900;2023-08-21T14:39:22;36.10;57.80
50544;DHT22;41176;44.032;20.900;2023-08-21T14:41:57;35.90;57.30
50544;DHT22;41176;44.032;20.900;2023-08-21T14:44:23;35.90;58.40
50544;DHT22;41176;44.032;20.900;2023-08-21T14:46:52;36.00;57.70
50544;DHT22;41176;44.032;20.900;2023-08-21T14:49:18;36.20;58.80
50544;DHT22;41176;44.032;20.900;2023-08-21T14:51:43;36.30;58.50
50544;DHT22;41176;44.032;20.900;2023-08-21T14:54:12;36.30;58.00
50544;DHT22;41176;44.032;20.900;2023-08-21T14:56:37;36.30;57.90
50544;DHT22;41176;44.032;20.900;2023-08-21T14:59:06;36.20;58.80
50544;DHT22;41176;44.032;20.900;2023-08-21T15:01:39;36.20;58.10
50544;DHT22;41176;44.032;20.900;2023-08-21T15:04:05;36.00;57.40
50544;DHT22;41176;44.032;20.900;2023-08-21T15:06:32;36.00;58.30
50544;DHT22;41176;44.032;20.900;2023-08-21T15:08:58;36.00;58.30
50544;DHT22;41176;44.032;20.900;2023-08-21T15:11:23;35.90;58.30
50544;DHT22;41176;44.032;20.900;2023-08-21T15:13:49;35.90;58.80
50544;DHT22;41176;44.032;20.900;2023-08-21T15:16:15;35.80;58.80
50544;DHT22;41176;44.032;20.900;2023-08-21T15:18:41;35.80;59.40
50544;DHT22;41176;44.032;20.900;2023-08-21T15:21:06;35.90;58.30
50544;DHT22;41176;44.032;20.900;2023-08-21T15:23:32;36.20;58.10
50544;DHT22;41176;44.032;20.900;2023-08-21T15:25:58;36.40;57.10
50544;DHT22;41176;44.032;20.900;2023-08-21T15:28:23;36.50;57.30
50544;DHT22;41176;44.032;20.900;2023-08-21T15:30:49;36.50;57.70
50544;DHT22;41176;44.032;20.900;2023-08-21T15:33:15;36.40;57.90
50544;DHT22;41176;44.032;20.900;2023-08-21T15:35:40;36.20;58.30
50544;DHT22;41176;44.032;20.900;2023-08-21T15:38:06;36.20;57.60
50544;DHT22;41176;44.032;20.900;2023-08-21T15:40:32;36.10;58.10
50544;DHT22;41176;44.032;20.900;2023-08-21T15:43:01;36.00;58.60
50544;DHT22;41176;44.032;20.900;2023-08-21T15:45:28;35.90;59.50
50544;DHT22;41176;44.032;20.900;2023-08-21T15:47:53;35.70;59.70
50544;DHT22;41176;44.032;20.900;2023-08-21T15:50:19;35.60;60.10